sensor_id;sensor_type;location;lat;lon;timestamp;P1;durP1;ratioP1;P2;durP2;ratioP2
77148;SDS011;66122;47.130;16.844;2022-12-22T00:05:58;20.73;;;7.07;;
77148;SDS011;66122;47.130;16.844;2022-12-22T00:16:20;25.08;;;7.32;;
77148;SDS011;66122;47.130;16.844;2022-12-22T00:26:42;24.90;;;7.50;;
77148;SDS011;66122;47.130;16.844;2022-12-22T00:37:09;25.03;;;8.53;;
77148;SDS011;66122;47.130;16.844;2022-12-22T00:47:32;24.45;;;6.85;;
77148;SDS011;66122;47.130;16.844;2022-12-22T00:57:53;31.55;;;8.68;;
77148;SDS011;66122;47.130;16.844;2022-12-22T01:08:14;21.40;;;7.23;;
77148;SDS011;66122;47.130;16.844;2022-12-22T01:18:36;29.10;;;8.50;;
77148;SDS011;66122;47.130;16.844;2022-12-22T01:28:57;19.00;;;7.05;;
77148;SDS011;66122;47.130;16.844;2022-12-22T01:39:18;26.90;;;8.57;;
77148;SDS011;66122;47.130;16.844;2022-12-22T01:49:40;24.97;;;7.70;;
77148;SDS011;66122;47.130;16.844;2022-12-22T02:00:04;26.25;;;8.52;;
77148;SDS011;66122;47.130;16.844;2022-12-22T02:20:58;30.27;;;8.33;;
77148;SDS011;66122;47.130;16.844;2022-12-22T02:31:24;22.73;;;8.23;;
77148;SDS011;66122;47.130;16.844;2022-12-22T02:41:51;22.57;;;7.47;;
77148;SDS011;66122;47.130;16.844;2022-12-22T02:52:22;24.20;;;7.57;;
77148;SDS011;66122;47.130;16.844;2022-12-22T03:02:50;27.03;;;8.63;;
77148;SDS011;66122;47.130;16.844;2022-12-22T03:13:11;21.15;;;7.60;;
77148;SDS011;66122;47.130;16.844;2022-12-22T03:23:32;25.90;;;7.20;;
77148;SDS011;66122;47.130;16.844;2022-12-22T03:33:53;22.23;;;7.00;;
77148;SDS011;66122;47.130;16.844;2022-12-22T03:43:56;20.15;;;6.97;;
77148;SDS011;66122;47.130;16.844;2022-12-22T03:54:19;23.90;;;7.37;;
77148;SDS011;66122;47.130;16.844;2022-12-22T04:04:23;19.93;;;7.33;;
77148;SDS011;66122;47.130;16.844;2022-12-22T04:14:27;18.35;;;8.05;;
77148;SDS011;66122;47.130;16.844;2022-12-22T04:24:35;24.63;;;8.00;;
77148;SDS011;66122;47.130;16.844;2022-12-22T04:34:38;26.30;;;8.97;;
77148;SDS011;66122;47.130;16.844;2022-12-22T04:44:40;20.33;;;7.97;;
77148;SDS011;66122;47.130;16.844;2022-12-22T04:54:43;25.98;;;8.93;;
77148;SDS011;66122;47.130;16.844;2022-12-22T05:04:45;27.17;;;10.17;;
77148;SDS011;66122;47.130;16.844;2022-12-22T05:14:48;26.03;;;9.33;;
77148;SDS011;66122;47.130;16.844;2022-12-22T05:24:51;33.58;;;12.98;;
77148;SDS011;66122;47.130;16.844;2022-12-22T05:34:53;24.27;;;8.33;;
77148;SDS011;66122;47.130;16.844;2022-12-22T05:44:56;22.43;;;8.67;;
77148;SDS011;66122;47.130;16.844;2022-12-22T05:54:58;28.63;;;11.85;;
77148;SDS011;66122;47.130;16.844;2022-12-22T06:05:01;29.00;;;10.87;;
77148;SDS011;66122;47.130;16.844;2022-12-22T06:15:04;27.67;;;9.20;;
77148;SDS011;66122;47.130;16.844;2022-12-22T06:25:07;37.30;;;14.90;;
77148;SDS011;66122;47.130;16.844;2022-12-22T06:35:19;25.05;;;9.82;;
77148;SDS011;66122;47.130;16.844;2022-12-22T06:45:21;26.47;;;10.03;;
77148;SDS011;66122;47.130;16.844;2022-12-22T06:55:25;24.70;;;9.17;;
77148;SDS011;66122;47.130;16.844;2022-12-22T07:05:28;29.75;;;11.75;;
77148;SDS011;66122;47.130;16.844;2022-12-22T07:15:33;32.43;;;14.60;;
77148;SDS011;66122;47.130;16.844;2022-12-22T07:25:36;27.40;;;10.77;;
77148;SDS011;66122;47.130;16.844;2022-12-22T07:35:38;27.83;;;12.85;;
77148;SDS011;66122;47.130;16.844;2022-12-22T07:45:41;25.03;;;10.93;;
77148;SDS011;66122;47.130;16.844;2022-12-22T07:55:43;24.23;;;11.30;;
77148;SDS011;66122;47.130;16.844;2022-12-22T08:05:46;30.07;;;13.10;;
77148;SDS011;66122;47.130;16.844;2022-12-22T08:15:49;35.67;;;14.98;;
77148;SDS011;66122;47.130;16.844;2022-12-22T08:25:56;42.20;;;17.50;;
77148;SDS011;66122;47.130;16.844;2022-12-22T08:36:01;35.90;;;15.30;;
77148;SDS011;66122;47.130;16.844;2022-12-22T08:46:09;39.08;;;17.92;;
77148;SDS011;66122;47.130;16.844;2022-12-22T08:56:12;31.57;;;13.83;;
77148;SDS011;66122;47.130;16.844;2022-12-22T09:06:16;35.37;;;14.37;;
77148;SDS011;66122;47.130;16.844;2022-12-22T09:16:20;53.72;;;17.75;;
77148;SDS011;66122;47.130;16.844;2022-12-22T09:26:24;36.90;;;15.37;;
77148;SDS011;66122;47.130;16.844;2022-12-22T09:36:30;37.27;;;14.90;;
77148;SDS011;66122;47.130;16.844;2022-12-22T09:46:34;49.87;;;16.90;;
77148;SDS011;66122;47.130;16.844;2022-12-22T09:56:38;36.10;;;15.00;;
77148;SDS011;66122;47.130;16.844;2022-12-22T10:27:17;44.05;;;14.60;;
77148;SDS011;66122;47.130;16.844;2022-12-22T10:37:35;37.20;;;12.20;;
77148;SDS011;66122;47.130;16.844;2022-12-22T10:47:45;42.53;;;12.57;;
77148;SDS011;66122;47.130;16.844;2022-12-22T10:57:51;26.63;;;12.25;;
77148;SDS011;66122;47.130;16.844;2022-12-22T11:08:16;40.07;;;14.93;;
77148;SDS011;66122;47.130;16.844;2022-12-22T11:38:49;39.58;;;13.20;;
77148;SDS011;66122;47.130;16.844;2022-12-22T12:20:30;30.80;;;11.13;;
77148;SDS011;66122;47.130;16.844;2022-12-22T12:30:58;44.97;;;13.50;;
77148;SDS011;66122;47.130;16.844;2022-12-22T13:01:54;36.37;;;12.30;;
77148;SDS011;66122;47.130;16.844;2022-12-22T13:12:31;50.33;;;17.60;;
77148;SDS011;66122;47.130;16.844;2022-12-22T13:22:41;40.28;;;15.30;;
77148;SDS011;66122;47.130;16.844;2022-12-22T13:32:45;60.10;;;14.10;;
77148;SDS011;66122;47.130;16.844;2022-12-22T13:52:53;35.60;;;12.85;;
77148;SDS011;66122;47.130;16.844;2022-12-22T14:02:58;34.27;;;12.67;;
77148;SDS011;66122;47.130;16.844;2022-12-22T14:13:01;35.90;;;12.03;;
77148;SDS011;66122;47.130;16.844;2022-12-22T14:23:12;51.97;;;15.77;;
77148;SDS011;66122;47.130;16.844;2022-12-22T14:43:29;32.13;;;12.23;;
77148;SDS011;66122;47.130;16.844;2022-12-22T15:03:39;30.55;;;12.82;;
77148;SDS011;66122;47.130;16.844;2022-12-22T15:13:43;28.03;;;9.77;;
77148;SDS011;66122;47.130;16.844;2022-12-22T15:23:47;27.37;;;10.53;;
77148;SDS011;66122;47.130;16.844;2022-12-22T15:33:50;38.72;;;16.20;;
77148;SDS011;66122;47.130;16.844;2022-12-22T15:43:55;51.10;;;22.67;;
77148;SDS011;66122;47.130;16.844;2022-12-22T15:53:59;45.43;;;17.70;;
77148;SDS011;66122;47.130;16.844;2022-12-22T16:04:02;58.00;;;19.75;;
77148;SDS011;66122;47.130;16.844;2022-12-22T16:14:05;44.30;;;17.00;;
77148;SDS011;66122;47.130;16.844;2022-12-22T16:24:09;39.67;;;15.17;;
77148;SDS011;66122;47.130;16.844;2022-12-22T16:34:27;42.17;;;18.90;;
77148;SDS011;66122;47.130;16.844;2022-12-22T16:44:31;47.10;;;20.13;;
77148;SDS011;66122;47.130;16.844;2022-12-22T16:54:51;50.40;;;23.50;;
77148;SDS011;66122;47.130;16.844;2022-12-22T17:04:54;40.33;;;17.07;;
77148;SDS011;66122;47.130;16.844;2022-12-22T17:15:01;31.38;;;14.45;;
77148;SDS011;66122;47.130;16.844;2022-12-22T17:25:04;40.47;;;15.90;;
77148;SDS011;66122;47.130;16.844;2022-12-22T17:35:13;43.20;;;19.90;;
77148;SDS011;66122;47.130;16.844;2022-12-22T17:45:19;43.00;;;17.48;;
77148;SDS011;66122;47.130;16.844;2022-12-22T17:55:23;107.37;;;32.13;;
77148;SDS011;66122;47.130;16.844;2022-12-22T18:05:48;54.17;;;23.27;;
77148;SDS011;66122;47.130;16.844;2022-12-22T18:15:50;103.83;;;31.93;;
77148;SDS011;66122;47.130;16.844;2022-12-22T18:25:54;57.70;;;20.60;;
77148;SDS011;66122;47.130;16.844;2022-12-22T18:35:57;44.87;;;19.83;;
77148;SDS011;66122;47.130;16.844;2022-12-22T18:46:00;61.43;;;22.87;;
77148;SDS011;66122;47.130;16.844;2022-12-22T18:56:03;59.22;;;24.63;;
77148;SDS011;66122;47.130;16.844;2022-12-22T19:06:07;45.77;;;20.33;;
77148;SDS011;66122;47.130;16.844;2022-12-22T19:16:11;34.60;;;15.57;;
77148;SDS011;66122;47.130;16.844;2022-12-22T19:26:20;55.60;;;20.17;;
77148;SDS011;66122;47.130;16.844;2022-12-22T19:36:27;46.87;;;18.57;;
77148;SDS011;66122;47.130;16.844;2022-12-22T19:46:31;83.60;;;27.57;;
77148;SDS011;66122;47.130;16.844;2022-12-22T19:56:35;73.90;;;21.93;;
77148;SDS011;66122;47.130;16.844;2022-12-22T20:06:38;77.53;;;25.35;;
77148;SDS011;66122;47.130;16.844;2022-12-22T20:16:41;106.77;;;31.27;;
77148;SDS011;66122;47.130;16.844;2022-12-22T20:26:44;82.73;;;22.83;;
77148;SDS011;66122;47.130;16.844;2022-12-22T20:36:54;57.70;;;17.52;;
77148;SDS011;66122;47.130;16.844;2022-12-22T20:47:00;82.77;;;20.73;;
77148;SDS011;66122;47.130;16.844;2022-12-22T20:57:04;103.53;;;18.07;;
77148;SDS011;66122;47.130;16.844;2022-12-22T21:07:07;143.35;;;21.05;;
77148;SDS011;66122;47.130;16.844;2022-12-22T21:17:16;120.30;;;22.50;;
77148;SDS011;66122;47.130;16.844;2022-12-22T21:27:21;91.63;;;22.70;;
77148;SDS011;66122;47.130;16.844;2022-12-22T21:37:26;86.27;;;17.70;;
77148;SDS011;66122;47.130;16.844;2022-12-22T21:47:29;96.45;;;20.85;;
77148;SDS011;66122;47.130;16.844;2022-12-22T21:57:32;84.13;;;19.87;;
77148;SDS011;66122;47.130;16.844;2022-12-22T22:07:35;94.50;;;20.33;;
77148;SDS011;66122;47.130;16.844;2022-12-22T22:17:40;99.88;;;19.17;;
77148;SDS011;66122;47.130;16.844;2022-12-22T22:27:44;74.40;;;16.33;;
77148;SDS011;66122;47.130;16.844;2022-12-22T22:37:50;89.60;;;19.63;;
77148;SDS011;66122;47.130;16.844;2022-12-22T22:47:53;85.82;;;18.17;;
77148;SDS011;66122;47.130;16.844;2022-12-22T22:57:56;79.13;;;17.37;;
77148;SDS011;66122;47.130;16.844;2022-12-22T23:07:59;74.90;;;19.40;;
77148;SDS011;66122;47.130;16.844;2022-12-22T23:18:01;62.17;;;17.03;;
77148;SDS011;66122;47.130;16.844;2022-12-22T23:28:04;61.17;;;16.80;;
77148;SDS011;66122;47.130;16.844;2022-12-22T23:38:07;59.83;;;16.83;;
77148;SDS011;66122;47.130;16.844;2022-12-22T23:48:10;64.17;;;16.47;;
77148;SDS011;66122;47.130;16.844;2022-12-22T23:58:13;45.85;;;16.23;;
